Kansai — JD3272 — position and weather

sailwx.info

Track history (hours):
 
Tides and Currents Weather Stations Pressure Air Temp Water Temp Dewpoint Dewpoint Depression Visibility Wind Speed Wind Dir Waves Ship Positions

Kansai

Last reported at 2016-Sep-29 00:33 UTC. Time now 2016-Oct-01 13:54 UTC.
Position N 34°42' E 135°15'.

Length 73 m; draft 4.2 m.

Type: Cargo ship. MMSI: 431003134.

Date/timePositionNaut miles runAvg speedWind from/ knotsBaromVisibWave heightAir tempDewpointWater temp
2016-Sep-29 00:33N 34°42' E 135°15'7 2.2
2016-Sep-28 21:33N 34°36' E 135°13'19 8.9
2016-Sep-28 19:22N 34°40' E 134°50'  
2016-Sep-26 13:06N 34°57' E 139°28'1711.2
2016-Sep-26 11:33N 35°08' E 139°44'3010.2
2016-Sep-26 08:33N 35°36' E 139°57'4 0.7
2016-Sep-26 02:33N 35°41' E 139°58'0 0.0
2016-Sep-26 01:33N 35°41' E 139°58'0 0.0
2016-Sep-26 00:33N 35°41' E 139°58'3 1.1
2016-Sep-25 21:33N 35°37' E 139°59'0 0.0
2016-Sep-25 17:33N 35°37' E 139°59'0 0.0
2016-Sep-25 16:33N 35°37' E 139°59'0 0.0
2016-Sep-25 15:33N 35°37' E 139°59'0 0.0
2016-Sep-25 14:32N 35°37' E 139°59'0 0.0
2016-Sep-25 12:33N 35°37' E 139°59'0 0.0
2016-Sep-25 11:33N 35°37' E 139°59'0 0.0
2016-Sep-25 10:33N 35°37' E 139°59'0 0.0
2016-Sep-25 09:33N 35°37' E 139°59'0 0.0
2016-Sep-25 07:33N 35°37' E 139°59'0 0.0
2016-Sep-25 04:33N 35°37' E 139°59'0 0.0
2016-Sep-25 00:33N 35°37' E 139°58'0 0.0
2016-Sep-24 22:33N 35°37' E 139°58'0 0.0
2016-Sep-24 21:33N 35°37' E 139°58'0 0.0
2016-Sep-24 19:33N 35°37' E 139°59'0 0.0
2016-Sep-24 18:33N 35°37' E 139°59'0 0.0
2016-Sep-24 17:33N 35°37' E 139°59'0 0.1
2016-Sep-24 16:33N 35°37' E 139°58'0 0.0
2016-Sep-24 14:33N 35°37' E 139°59'0 0.0
2016-Sep-24 12:33N 35°37' E 139°59'0 0.0
2016-Sep-24 10:33N 35°37' E 139°59'0 0.1
2016-Sep-24 09:33N 35°37' E 139°59'0 0.0
2016-Sep-24 03:33N 35°37' E 139°58'0 0.1
2016-Sep-24 02:33N 35°37' E 139°59'0 0.0
2016-Sep-24 01:33N 35°37' E 139°59'0 0.1
2016-Sep-24 00:33N 35°37' E 139°58'255 7.0
2016-Sep-22 12:11N 34°37' E 134°55'7 0.4
2016-Sep-21 19:11N 34°41' E 134°49'28 1.1
2016-Sep-20 17:33N 34°41' E 135°23'0 0.0
2016-Sep-20 14:33N 34°41' E 135°23'0 0.0
2016-Sep-20 13:33N 34°41' E 135°23'0 0.0
2016-Sep-20 10:33N 34°41' E 135°23'0 0.0
2016-Sep-20 08:33N 34°41' E 135°23'0 0.0
2016-Sep-20 07:33N 34°41' E 135°23'0 0.1
2016-Sep-20 06:33N 34°41' E 135°23'0 0.0
2016-Sep-20 02:33N 34°41' E 135°23'0 0.0
2016-Sep-19 23:33N 34°41' E 135°23'0 0.0
2016-Sep-19 19:33N 34°41' E 135°23'0 0.0
2016-Sep-19 18:33N 34°41' E 135°23'15 7.6
2016-Sep-19 16:33N 34°30' E 135°11'  
Track history (hours):
 
Tides and Currents Weather Stations Pressure Air Temp Water Temp Dewpoint Dewpoint Depression Visibility Wind Speed Wind Dir Waves Ship Positions

Kansai

Last reported at 2016-Sep-29 00:33 UTC. Time now 2016-Oct-01 13:54 UTC.
Position N 34°42' E 135°15'.

Length 73 m; draft 4.2 m.

Type: Cargo ship. MMSI: 431003134.

Date/timePositionNaut miles runAvg speedWind from/ knotsBaromVisibWave heightAir tempDewpointWater temp
2016-Sep-29 00:33N 34°42' E 135°15'7 2.2
2016-Sep-28 21:33N 34°36' E 135°13'19 8.9
2016-Sep-28 19:22N 34°40' E 134°50'  
2016-Sep-26 13:06N 34°57' E 139°28'1711.2
2016-Sep-26 11:33N 35°08' E 139°44'3010.2
2016-Sep-26 08:33N 35°36' E 139°57'4 0.7
2016-Sep-26 02:33N 35°41' E 139°58'0 0.0
2016-Sep-26 01:33N 35°41' E 139°58'0 0.0
2016-Sep-26 00:33N 35°41' E 139°58'3 1.1
2016-Sep-25 21:33N 35°37' E 139°59'0 0.0
2016-Sep-25 17:33N 35°37' E 139°59'0 0.0
2016-Sep-25 16:33N 35°37' E 139°59'0 0.0
2016-Sep-25 15:33N 35°37' E 139°59'0 0.0
2016-Sep-25 14:32N 35°37' E 139°59'0 0.0
2016-Sep-25 12:33N 35°37' E 139°59'0 0.0
2016-Sep-25 11:33N 35°37' E 139°59'0 0.0
2016-Sep-25 10:33N 35°37' E 139°59'0 0.0
2016-Sep-25 09:33N 35°37' E 139°59'0 0.0
2016-Sep-25 07:33N 35°37' E 139°59'0 0.0
2016-Sep-25 04:33N 35°37' E 139°59'0 0.0
2016-Sep-25 00:33N 35°37' E 139°58'0 0.0
2016-Sep-24 22:33N 35°37' E 139°58'0 0.0
2016-Sep-24 21:33N 35°37' E 139°58'0 0.0
2016-Sep-24 19:33N 35°37' E 139°59'0 0.0
2016-Sep-24 18:33N 35°37' E 139°59'0 0.0
2016-Sep-24 17:33N 35°37' E 139°59'0 0.1
2016-Sep-24 16:33N 35°37' E 139°58'0 0.0
2016-Sep-24 14:33N 35°37' E 139°59'0 0.0
2016-Sep-24 12:33N 35°37' E 139°59'0 0.0
2016-Sep-24 10:33N 35°37' E 139°59'0 0.1
2016-Sep-24 09:33N 35°37' E 139°59'0 0.0
2016-Sep-24 03:33N 35°37' E 139°58'0 0.1
2016-Sep-24 02:33N 35°37' E 139°59'0 0.0
2016-Sep-24 01:33N 35°37' E 139°59'0 0.1
2016-Sep-24 00:33N 35°37' E 139°58'255 7.0
2016-Sep-22 12:11N 34°37' E 134°55'7 0.4
2016-Sep-21 19:11N 34°41' E 134°49'28 1.1
2016-Sep-20 17:33N 34°41' E 135°23'0 0.0
2016-Sep-20 14:33N 34°41' E 135°23'0 0.0
2016-Sep-20 13:33N 34°41' E 135°23'0 0.0
2016-Sep-20 10:33N 34°41' E 135°23'0 0.0
2016-Sep-20 08:33N 34°41' E 135°23'0 0.0
2016-Sep-20 07:33N 34°41' E 135°23'0 0.1
2016-Sep-20 06:33N 34°41' E 135°23'0 0.0
2016-Sep-20 02:33N 34°41' E 135°23'0 0.0
2016-Sep-19 23:33N 34°41' E 135°23'0 0.0
2016-Sep-19 19:33N 34°41' E 135°23'0 0.0
2016-Sep-19 18:33N 34°41' E 135°23'15 7.6
2016-Sep-19 16:33N 34°30' E 135°11'  

Dump ship's entire track history